createdAt,value
2019-01-24T00:00:21.572Z,-1.00
2019-01-24T00:02:49.119Z,-1.00
2019-01-24T00:05:16.704Z,-1.20
2019-01-24T00:07:44.257Z,-1.20
2019-01-24T00:10:13.504Z,-1.40
2019-01-24T00:12:41.088Z,-1.40
2019-01-24T00:15:08.644Z,-1.40
2019-01-24T00:17:36.225Z,-1.30
2019-01-24T00:20:04.552Z,-1.30
2019-01-24T00:22:32.112Z,-1.40
2019-01-24T00:24:59.700Z,-1.40
2019-01-24T00:27:27.252Z,-1.40
2019-01-24T00:29:54.824Z,-1.50
2019-01-24T00:32:23.140Z,-1.40
2019-01-24T00:34:50.721Z,-1.40
2019-01-24T00:37:18.267Z,-1.50
2019-01-24T00:39:45.815Z,-1.40
2019-01-24T00:42:13.388Z,-1.50
2019-01-24T00:44:40.933Z,-1.60
2019-01-24T00:47:08.515Z,-1.70
2019-01-24T00:49:36.071Z,-1.60
2019-01-24T00:52:03.650Z,-1.60
2019-01-24T00:54:31.196Z,-1.60
2019-01-24T00:56:58.825Z,-1.60
2019-01-24T00:59:26.406Z,-1.70
2019-01-24T01:01:53.964Z,-1.40
2019-01-24T01:04:21.540Z,-1.20
2019-01-24T01:06:49.089Z,-1.10
2019-01-24T01:09:16.666Z,-0.80
2019-01-24T01:11:44.219Z,-0.50
2019-01-24T01:14:11.800Z,-0.50
2019-01-24T01:16:39.379Z,-0.30
2019-01-24T01:19:06.950Z,-0.40
2019-01-24T01:21:34.531Z,-0.20
2019-01-24T01:24:02.077Z,-0.60
2019-01-24T01:26:29.623Z,-1.00
2019-01-24T01:28:58.206Z,-1.10
2019-01-24T01:31:25.781Z,-1.20
2019-01-24T01:33:53.333Z,-1.30
2019-01-24T01:36:20.876Z,-1.20
2019-01-24T01:38:48.465Z,-1.20
2019-01-24T01:41:16.827Z,-0.70
2019-01-24T01:43:44.407Z,-0.70
2019-01-24T01:46:11.949Z,-0.70
2019-01-24T01:48:39.521Z,-0.50
2019-01-24T01:51:07.842Z,-0.40
2019-01-24T01:53:35.420Z,-0.50
2019-01-24T01:56:02.979Z,-0.40
2019-01-24T01:58:30.527Z,-0.40
2019-01-24T02:00:58.104Z,-0.50
2019-01-24T02:03:25.672Z,-0.50
2019-01-24T02:05:53.257Z,-0.40
2019-01-24T02:08:20.804Z,-0.40
2019-01-24T02:10:48.386Z,-0.70
2019-01-24T02:13:15.927Z,-0.50
2019-01-24T02:15:44.525Z,-0.50
2019-01-24T02:18:12.078Z,-0.40
2019-01-24T02:20:39.628Z,-0.40
2019-01-24T02:23:07.205Z,-0.50
2019-01-24T02:25:34.755Z,-0.60
2019-01-24T02:28:03.212Z,-0.60
2019-01-24T02:30:30.771Z,-0.60
2019-01-24T02:32:58.357Z,-0.70
2019-01-24T02:35:25.932Z,-0.80
2019-01-24T02:37:53.493Z,-1.00
2019-01-24T02:40:21.078Z,-1.10
2019-01-24T02:42:48.632Z,-0.90
2019-01-24T02:45:17.855Z,-0.90
2019-01-24T02:47:45.415Z,-0.90
2019-01-24T02:50:12.977Z,-0.90
2019-01-24T02:52:40.565Z,-0.90
2019-01-24T02:55:08.127Z,-0.80
2019-01-24T02:57:35.699Z,-0.60
2019-01-24T03:00:03.264Z,-0.50
2019-01-24T03:02:30.850Z,-0.80
2019-01-24T03:04:59.166Z,-1.00
2019-01-24T03:07:26.712Z,-1.10
2019-01-24T03:09:54.293Z,-1.00
2019-01-24T03:12:21.843Z,-1.10
2019-01-24T03:14:49.420Z,-0.90
2019-01-24T03:17:16.987Z,-0.90
2019-01-24T03:19:44.563Z,-0.80
2019-01-24T03:22:12.115Z,-0.60
2019-01-24T03:24:39.692Z,-0.40
2019-01-24T03:27:07.244Z,-0.60
2019-01-24T03:29:35.596Z,-0.40
2019-01-24T03:32:03.154Z,-0.40
2019-01-24T03:34:30.712Z,-0.60
2019-01-24T03:36:58.303Z,-0.40
2019-01-24T03:39:25.857Z,-0.30
2019-01-24T03:41:53.553Z,-0.20
2019-01-24T03:44:21.110Z,-0.30
2019-01-24T03:46:48.692Z,-0.60
2019-01-24T03:49:16.239Z,-0.80
2019-01-24T03:51:43.795Z,-0.80
2019-01-24T03:54:11.372Z,-0.90
2019-01-24T03:56:38.920Z,-0.80
2019-01-24T03:59:06.503Z,-1.00
2019-01-24T04:01:34.063Z,-1.10
2019-01-24T04:04:01.644Z,-1.30
2019-01-24T04:06:29.188Z,-1.20
2019-01-24T04:08:56.734Z,-1.20
2019-01-24T04:11:25.076Z,-1.20
2019-01-24T04:13:52.619Z,-1.20
2019-01-24T04:16:20.199Z,-1.20
2019-01-24T04:18:47.768Z,-1.10
2019-01-24T04:21:15.311Z,-1.20
2019-01-24T04:23:42.888Z,-1.10
2019-01-24T04:26:10.454Z,-0.70
2019-01-24T04:28:38.801Z,-1.10
2019-01-24T04:31:06.352Z,-1.10
2019-01-24T04:33:33.934Z,-1.10
2019-01-24T04:36:01.483Z,-1.10
2019-01-24T04:38:29.059Z,-0.80
2019-01-24T04:40:56.633Z,-0.80
2019-01-24T04:43:24.184Z,-1.00
2019-01-24T04:45:52.525Z,-1.30
2019-01-24T04:48:20.086Z,-1.30
2019-01-24T04:50:47.668Z,-1.20
2019-01-24T04:53:16.143Z,-1.40
2019-01-24T04:55:43.698Z,-1.30
2019-01-24T04:58:11.279Z,-1.20
2019-01-24T05:00:38.827Z,-1.40
2019-01-24T05:03:07.170Z,-1.40
2019-01-24T05:05:34.724Z,-1.40
2019-01-24T05:08:02.309Z,-1.40
2019-01-24T05:10:29.872Z,-1.30
2019-01-24T05:12:58.268Z,-1.60
2019-01-24T05:15:25.844Z,-1.60
2019-01-24T05:17:53.389Z,-1.60
2019-01-24T05:20:20.977Z,-1.60
2019-01-24T05:22:48.528Z,-1.60
2019-01-24T05:25:16.118Z,-1.50
2019-01-24T05:27:43.681Z,-1.40
2019-01-24T05:30:12.047Z,-0.90
2019-01-24T05:32:39.629Z,-1.00
2019-01-24T05:35:07.227Z,-1.20
2019-01-24T05:37:34.791Z,-1.00
2019-01-24T05:40:02.345Z,-0.60
2019-01-24T05:42:29.916Z,-0.30
2019-01-24T05:44:57.468Z,-0.40
2019-01-24T05:47:25.052Z,-0.40
2019-01-24T05:49:52.605Z,-0.60
2019-01-24T05:52:20.159Z,-0.70
2019-01-24T05:54:47.740Z,-0.90
2019-01-24T05:57:15.319Z,-1.20
2019-01-24T05:59:42.900Z,-1.20
2019-01-24T06:02:10.448Z,-1.40
2019-01-24T06:04:38.006Z,-1.50
2019-01-24T06:07:05.582Z,-1.50
2019-01-24T06:09:33.134Z,-1.60
2019-01-24T06:12:00.709Z,-1.70
2019-01-24T06:14:28.292Z,-1.80
2019-01-24T06:16:55.853Z,-1.90
2019-01-24T06:19:23.428Z,-1.90
2019-01-24T06:21:50.977Z,-1.70
2019-01-24T06:24:19.291Z,-1.60
2019-01-24T06:26:46.875Z,-1.60
2019-01-24T06:29:14.621Z,-1.70
2019-01-24T06:31:42.210Z,-1.70
2019-01-24T06:34:09.760Z,-1.60
2019-01-24T06:36:37.342Z,-1.40
2019-01-24T06:39:04.919Z,-1.30
2019-01-24T06:41:32.467Z,-1.10
2019-01-24T06:44:00.809Z,-1.10
2019-01-24T06:46:28.649Z,-1.10
2019-01-24T06:48:56.228Z,-1.30
2019-01-24T06:51:23.780Z,-1.50
2019-01-24T06:53:51.360Z,-1.60
2019-01-24T06:56:18.907Z,-1.10
2019-01-24T06:58:46.484Z,-1.10
2019-01-24T07:01:14.031Z,-1.00
2019-01-24T07:03:41.608Z,-0.70
2019-01-24T07:06:09.155Z,-0.90
2019-01-24T07:08:36.701Z,-0.90
2019-01-24T07:11:04.279Z,-0.80
2019-01-24T07:13:31.835Z,-0.80
2019-01-24T07:15:59.412Z,-0.90
2019-01-24T07:18:26.975Z,-0.80
2019-01-24T07:20:54.529Z,-0.80
2019-01-24T07:23:22.225Z,-0.60
2019-01-24T07:25:50.728Z,-0.70
2019-01-24T07:28:19.091Z,-0.60
2019-01-24T07:30:46.652Z,-0.60
2019-01-24T07:33:15.213Z,-0.50
2019-01-24T07:35:42.768Z,-1.10
2019-01-24T07:38:10.345Z,-1.50
2019-01-24T07:40:37.888Z,-1.50
2019-01-24T07:43:05.440Z,-1.30
2019-01-24T07:45:33.021Z,-0.90
2019-01-24T07:48:00.572Z,-1.20
2019-01-24T07:50:28.151Z,-1.40
2019-01-24T07:52:55.713Z,-1.60
2019-01-24T07:55:23.297Z,-1.70
2019-01-24T07:57:50.855Z,-1.60
2019-01-24T08:00:19.747Z,-1.60
2019-01-24T08:02:46.964Z,-1.80
2019-01-24T08:05:14.564Z,-1.80
2019-01-24T08:07:42.145Z,-1.70
2019-01-24T08:10:11.269Z,-1.40
2019-01-24T08:12:38.832Z,-1.00
2019-01-24T08:15:06.412Z,-1.00
2019-01-24T08:17:33.984Z,-0.90
2019-01-24T08:20:01.562Z,-0.80
2019-01-24T08:22:29.116Z,-0.60
2019-01-24T08:24:56.701Z,-0.70
2019-01-24T08:27:24.261Z,-0.80
2019-01-24T08:29:51.844Z,-0.70
2019-01-24T08:32:19.401Z,-0.80
2019-01-24T08:34:47.964Z,-1.20
2019-01-24T08:37:15.511Z,-1.30
2019-01-24T08:39:43.270Z,-1.10
2019-01-24T08:42:10.828Z,-1.00
2019-01-24T08:44:38.379Z,-1.40
2019-01-24T08:47:05.959Z,-1.10
2019-01-24T08:49:33.512Z,-1.30
2019-01-24T08:52:01.088Z,-1.30
2019-01-24T08:54:28.649Z,-1.40
2019-01-24T08:56:57.003Z,-0.90
2019-01-24T08:59:29.442Z,-0.90
2019-01-24T09:01:52.182Z,-1.20
2019-01-24T09:04:19.757Z,-1.70
2019-01-24T09:06:47.309Z,-1.70
2019-01-24T09:09:15.881Z,-1.70
2019-01-24T09:11:43.432Z,-1.60
2019-01-24T09:14:11.017Z,-1.60
2019-01-24T09:16:39.336Z,-1.70
2019-01-24T09:19:07.675Z,-1.70
2019-01-24T09:21:35.226Z,-1.70
2019-01-24T09:24:02.777Z,-1.70
2019-01-24T09:26:31.613Z,-1.70
2019-01-24T09:28:58.708Z,-1.50
2019-01-24T09:31:26.283Z,-1.50
2019-01-24T09:33:53.828Z,-1.40
2019-01-24T09:36:21.404Z,-1.40
2019-01-24T09:38:48.955Z,-1.50
2019-01-24T09:41:16.503Z,-1.40
2019-01-24T09:43:44.075Z,-1.20
2019-01-24T09:46:11.615Z,-1.00
2019-01-24T09:48:39.193Z,-1.40
2019-01-24T09:51:06.744Z,-1.40
2019-01-24T09:53:34.319Z,-1.50
2019-01-24T09:56:01.868Z,-1.50
2019-01-24T09:58:29.420Z,-1.30
2019-01-24T10:00:57.004Z,-1.30
2019-01-24T10:03:24.560Z,-1.20
2019-01-24T10:05:52.144Z,-0.90
2019-01-24T10:08:19.692Z,-1.20
2019-01-24T10:10:47.240Z,-1.50
2019-01-24T10:13:14.815Z,-1.60
2019-01-24T10:15:42.388Z,-1.10
2019-01-24T10:18:10.961Z,-0.90
2019-01-24T10:20:38.516Z,-1.00
2019-01-24T10:23:06.067Z,-1.10
2019-01-24T10:25:33.652Z,-1.20
2019-01-24T10:28:01.203Z,-1.30
2019-01-24T10:30:28.773Z,-1.20
2019-01-24T10:32:56.630Z,-0.80
2019-01-24T10:35:24.178Z,-0.90
2019-01-24T10:37:51.786Z,-0.80
2019-01-24T10:40:20.157Z,-0.50
2019-01-24T10:42:47.718Z,-0.60
2019-01-24T10:45:15.314Z,-0.70
2019-01-24T10:47:42.861Z,-0.50
2019-01-24T10:50:10.448Z,-0.30
2019-01-24T10:52:37.991Z,-0.50
2019-01-24T10:55:05.540Z,-0.10
2019-01-24T10:57:33.120Z,-0.30
2019-01-24T11:00:00.673Z,-0.50
2019-01-24T11:02:28.445Z,-0.40
2019-01-24T11:04:56.020Z,-0.10
2019-01-24T11:07:23.567Z,-0.20
2019-01-24T11:09:51.114Z,-0.60
2019-01-24T11:12:18.683Z,-0.10
2019-01-24T11:14:46.236Z,-0.10
2019-01-24T11:17:13.808Z,0.00
2019-01-24T11:19:41.354Z,-0.30
2019-01-24T11:22:08.932Z,-0.40
2019-01-24T11:24:36.480Z,-0.40
2019-01-24T11:27:04.064Z,-0.30
2019-01-24T11:29:31.612Z,-0.10
2019-01-24T11:31:59.923Z,-0.50
2019-01-24T11:34:27.498Z,-0.60
2019-01-24T11:36:57.159Z,-0.70
2019-01-24T11:39:22.667Z,-0.40
2019-01-24T11:41:50.208Z,0.00
2019-01-24T11:44:17.781Z,0.30
2019-01-24T11:46:45.323Z,-0.10
2019-01-24T11:49:12.901Z,-0.40
2019-01-24T11:51:41.243Z,-0.50
2019-01-24T11:54:08.796Z,-0.50
2019-01-24T11:56:36.363Z,-0.70
2019-01-24T11:59:03.909Z,-0.70
2019-01-24T12:01:31.487Z,-0.90
2019-01-24T12:03:59.045Z,-0.80
2019-01-24T12:06:26.615Z,-0.80
2019-01-24T12:08:54.169Z,-0.70
2019-01-24T12:11:21.743Z,-0.70
2019-01-24T12:13:49.316Z,-0.60
2019-01-24T12:16:17.630Z,-0.90
2019-01-24T12:18:45.208Z,-0.90
2019-01-24T12:21:12.764Z,-0.90
2019-01-24T12:23:40.353Z,-0.90
2019-01-24T12:26:08.659Z,-0.30
2019-01-24T12:28:36.510Z,-0.30
2019-01-24T12:31:04.205Z,-0.10
2019-01-24T12:33:31.749Z,-0.10
2019-01-24T12:35:59.335Z,-0.30
2019-01-24T12:38:26.880Z,-0.70
2019-01-24T12:40:54.429Z,-0.70
2019-01-24T12:43:22.006Z,-0.70
2019-01-24T12:45:49.579Z,-0.60
2019-01-24T12:48:17.156Z,-0.80
2019-01-24T12:50:44.701Z,-0.90
2019-01-24T12:53:12.275Z,-1.00
2019-01-24T12:55:40.588Z,-1.10
2019-01-24T12:58:08.172Z,-1.10
2019-01-24T13:00:35.752Z,-1.10
2019-01-24T13:03:03.314Z,-1.10
2019-01-24T13:05:31.633Z,-1.10
2019-01-24T13:07:59.204Z,-1.20
2019-01-24T13:10:26.752Z,-1.00
2019-01-24T13:12:54.331Z,-0.90
2019-01-24T13:15:30.144Z,-0.90
2019-01-24T13:17:57.717Z,-0.80
2019-01-24T13:20:26.287Z,-0.60
2019-01-24T13:22:53.834Z,-0.40
2019-01-24T13:25:23.976Z,-0.60
2019-01-24T13:27:51.525Z,-0.70
2019-01-24T13:30:20.115Z,-0.80
2019-01-24T13:32:47.664Z,-0.60
2019-01-24T13:35:15.216Z,-0.60
2019-01-24T13:37:42.795Z,-0.80
2019-01-24T13:40:12.230Z,-1.00
2019-01-24T13:42:39.804Z,-0.90
2019-01-24T13:45:09.930Z,-0.90
2019-01-24T13:47:37.518Z,-0.90
2019-01-24T13:50:06.056Z,-0.70
2019-01-24T13:52:33.632Z,-0.60
2019-01-24T13:55:01.973Z,-0.50
2019-01-24T13:57:29.544Z,-0.60
2019-01-24T13:59:57.124Z,-0.60
2019-01-24T14:02:24.673Z,-0.80
2019-01-24T14:04:53.004Z,-0.80
2019-01-24T14:07:20.557Z,-0.80
2019-01-24T14:09:48.104Z,-0.90
2019-01-24T14:12:15.676Z,-0.90
2019-01-24T14:14:43.236Z,-0.80
2019-01-24T14:17:10.823Z,-1.00
2019-01-24T14:19:39.076Z,-0.60
2019-01-24T14:22:06.644Z,-0.30
2019-01-24T14:24:34.183Z,-0.30
2019-01-24T14:27:01.752Z,-0.40
2019-01-24T14:29:29.299Z,-0.50
2019-01-24T14:34:30.707Z,-0.80
2019-01-24T14:36:58.253Z,-1.10
2019-01-24T14:39:26.589Z,-1.00
2019-01-24T14:41:54.142Z,-1.10
2019-01-24T14:44:21.796Z,-1.10
2019-01-24T14:46:49.364Z,-1.20
2019-01-24T14:49:16.912Z,-1.10
2019-01-24T14:51:45.424Z,-1.10
2019-01-24T14:54:13.000Z,-1.20
2019-01-24T14:56:40.545Z,-1.10
2019-01-24T14:59:08.121Z,-1.20
2019-01-24T15:01:36.464Z,-1.10
2019-01-24T15:04:04.020Z,-1.10
2019-01-24T15:06:31.598Z,-1.10
2019-01-24T15:08:59.163Z,-1.20
2019-01-24T15:11:27.481Z,-1.10
2019-01-24T15:13:56.050Z,-1.10
2019-01-24T15:16:23.595Z,-1.10
2019-01-24T15:18:52.158Z,-1.10
2019-01-24T15:21:19.704Z,-1.20
2019-01-24T15:23:47.300Z,-1.20
2019-01-24T15:26:14.859Z,-1.10
2019-01-24T15:28:42.413Z,-0.90
2019-01-24T15:31:09.994Z,-0.70
2019-01-24T15:33:37.543Z,-0.80
2019-01-24T15:36:05.127Z,-0.80
2019-01-24T15:38:32.700Z,-1.00
2019-01-24T15:41:00.281Z,-1.10
2019-01-24T15:43:27.851Z,-1.00
2019-01-24T15:45:55.399Z,-1.00
2019-01-24T15:48:23.944Z,-1.20
2019-01-24T15:50:51.492Z,-1.10
2019-01-24T15:53:19.066Z,-1.20
2019-01-24T15:55:46.641Z,-1.10
2019-01-24T15:58:15.948Z,-1.00
2019-01-24T16:00:44.276Z,-1.10
2019-01-24T16:03:11.870Z,-1.10
2019-01-24T16:05:39.419Z,-1.00
2019-01-24T16:08:06.996Z,-1.10
2019-01-24T16:10:35.305Z,-0.90
2019-01-24T16:13:02.852Z,-0.90
2019-01-24T16:15:30.447Z,-1.00
2019-01-24T16:17:58.000Z,-1.00
2019-01-24T16:20:25.599Z,-1.00
2019-01-24T16:22:53.162Z,-1.00
2019-01-24T16:25:20.711Z,-1.00
2019-01-24T16:27:49.058Z,-1.00
2019-01-24T16:30:17.416Z,-1.00
2019-01-24T16:32:45.259Z,-1.00
2019-01-24T16:35:12.916Z,-1.00
2019-01-24T16:37:40.488Z,-1.10
2019-01-24T16:40:08.167Z,-1.00
2019-01-24T16:42:36.729Z,-1.00
2019-01-24T16:45:04.330Z,-1.00
2019-01-24T16:47:31.893Z,-1.00
2019-01-24T16:49:59.489Z,-1.00
2019-01-24T16:52:27.072Z,-0.90
2019-01-24T16:54:54.831Z,-0.90
2019-01-24T16:57:22.476Z,-0.90
2019-01-24T16:59:50.034Z,-0.90
2019-01-24T17:02:18.909Z,-0.90
2019-01-24T17:04:45.292Z,-0.90
2019-01-24T17:07:12.932Z,-0.90
2019-01-24T17:09:40.477Z,-0.90
2019-01-24T17:12:08.052Z,-0.90
2019-01-24T17:14:35.628Z,-0.90
2019-01-24T17:17:03.205Z,-0.90
2019-01-24T17:19:30.762Z,-0.90
2019-01-24T17:21:58.340Z,-0.90
2019-01-24T17:24:25.892Z,-1.00
2019-01-24T17:26:53.444Z,-1.10
2019-01-24T17:29:22.004Z,-1.00
2019-01-24T17:31:49.726Z,-1.10
2019-01-24T17:34:17.308Z,-1.20
2019-01-24T17:36:44.864Z,-1.10
2019-01-24T17:39:12.440Z,-1.10
2019-01-24T17:41:39.992Z,-1.10
2019-01-24T17:44:07.576Z,-1.20
2019-01-24T17:46:35.922Z,-1.00
2019-01-24T17:49:03.504Z,-1.00
2019-01-24T17:51:31.054Z,-0.80
2019-01-24T17:53:58.601Z,-0.80
2019-01-24T17:56:26.176Z,-1.00
2019-01-24T17:58:53.733Z,-1.20
2019-01-24T18:01:21.589Z,-1.10
2019-01-24T18:03:50.019Z,-1.10
2019-01-24T18:06:17.651Z,-1.10
2019-01-24T18:08:45.218Z,-1.10
2019-01-24T18:11:12.763Z,-1.30
2019-01-24T18:13:40.352Z,-1.30
2019-01-24T18:16:07.935Z,-1.20
2019-01-24T18:18:35.521Z,-1.20
2019-01-24T18:21:03.081Z,-1.30
2019-01-24T18:23:31.392Z,-1.40
2019-01-24T18:25:58.960Z,-1.40
2019-01-24T18:28:26.504Z,-1.30
2019-01-24T18:30:54.082Z,-1.10
2019-01-24T18:33:21.659Z,-0.70
2019-01-24T18:35:49.208Z,-0.40
2019-01-24T18:38:16.751Z,-0.50
2019-01-24T18:40:44.321Z,-0.30
2019-01-24T18:43:11.876Z,-0.40
2019-01-24T18:45:39.443Z,-0.50
2019-01-24T18:48:07.108Z,-0.90
2019-01-24T18:50:34.658Z,-0.80
2019-01-24T18:53:02.237Z,-0.90
2019-01-24T18:55:29.779Z,-0.60
2019-01-24T18:57:57.357Z,-0.70
2019-01-24T19:00:26.155Z,-1.10
2019-01-24T19:02:54.044Z,-1.10
2019-01-24T19:05:21.627Z,-1.20
2019-01-24T19:07:49.211Z,-1.30
2019-01-24T19:10:16.781Z,-1.30
2019-01-24T19:12:44.359Z,-1.40
2019-01-24T19:15:13.732Z,-1.30
2019-01-24T19:17:41.313Z,-1.30
2019-01-24T19:20:09.635Z,-1.20
2019-01-24T19:22:37.180Z,-1.20
2019-01-24T19:25:04.755Z,-0.90
2019-01-24T19:27:32.304Z,-0.60
2019-01-24T19:29:59.880Z,-0.40
2019-01-24T19:32:27.428Z,-0.70
2019-01-24T19:34:54.996Z,-0.50
2019-01-24T19:37:22.716Z,-0.50
2019-01-24T19:39:50.288Z,-0.80
2019-01-24T19:42:17.841Z,-0.40
2019-01-24T19:44:46.385Z,-0.50
2019-01-24T19:47:14.705Z,-0.80
2019-01-24T19:49:43.176Z,-0.80
2019-01-24T19:52:10.752Z,-0.40
2019-01-24T19:54:39.163Z,-0.40
2019-01-24T19:57:06.765Z,-0.80
2019-01-24T19:59:34.310Z,-0.90
2019-01-24T20:02:01.884Z,-0.60
2019-01-24T20:04:29.441Z,-0.30
2019-01-24T20:06:57.513Z,-0.10
2019-01-24T20:09:25.119Z,-0.10
2019-01-24T20:11:52.672Z,-0.20
2019-01-24T20:14:20.257Z,-0.20
2019-01-24T20:16:47.803Z,-0.20
2019-01-24T20:19:15.368Z,0.00
2019-01-24T20:21:43.682Z,-0.30
2019-01-24T20:24:11.265Z,-0.30
2019-01-24T20:26:38.996Z,-0.20
2019-01-24T20:29:07.595Z,-0.70
2019-01-24T20:31:35.174Z,-0.70
2019-01-24T20:34:02.726Z,-0.80
2019-01-24T20:36:32.128Z,-0.60
2019-01-24T20:38:59.724Z,-0.80
2019-01-24T20:41:27.304Z,-1.00
2019-01-24T20:43:54.879Z,-1.20
2019-01-24T20:46:22.617Z,-0.90
2019-01-24T20:48:50.394Z,-1.00
2019-01-24T20:51:19.076Z,-1.10
2019-01-24T20:53:46.690Z,-1.00
2019-01-24T20:56:14.268Z,-1.00
2019-01-24T20:58:41.839Z,-1.10
2019-01-24T21:01:09.403Z,-1.10
2019-01-24T21:03:37.954Z,-1.30
2019-01-24T21:06:05.499Z,-1.40
2019-01-24T21:08:33.049Z,-1.40
2019-01-24T21:11:00.627Z,-1.20
2019-01-24T21:13:28.176Z,-1.00
2019-01-24T21:15:55.748Z,-1.10
2019-01-24T21:18:23.295Z,-1.40
2019-01-24T21:20:50.875Z,-1.40
2019-01-24T21:23:18.452Z,-1.40
2019-01-24T21:25:46.008Z,-1.00
2019-01-24T21:28:13.584Z,-1.10
2019-01-24T21:30:41.129Z,-1.20
2019-01-24T21:33:08.701Z,-1.40
2019-01-24T21:35:36.271Z,-1.40
2019-01-24T21:38:03.844Z,-0.90
2019-01-24T21:40:31.408Z,-0.90
2019-01-24T21:42:58.958Z,-1.00
2019-01-24T21:45:31.268Z,-1.10
2019-01-24T21:47:58.829Z,-1.30
2019-01-24T21:50:27.213Z,-1.50
2019-01-24T21:52:54.938Z,-1.50
2019-01-24T21:55:23.251Z,-1.60
2019-01-24T21:57:50.825Z,-1.60
2019-01-24T22:00:18.445Z,-1.60
2019-01-24T22:02:46.043Z,-1.60
2019-01-24T22:05:13.590Z,-1.50
2019-01-24T22:07:41.132Z,-1.40
2019-01-24T22:10:08.702Z,-1.50
2019-01-24T22:12:36.296Z,-1.50
2019-01-24T22:15:04.511Z,-1.60
2019-01-24T22:17:34.357Z,-1.30
2019-01-24T22:20:04.156Z,-1.30
2019-01-24T22:22:34.415Z,-1.20
2019-01-24T22:25:05.617Z,-1.10
2019-01-24T22:27:38.119Z,-1.10
2019-01-24T22:30:14.117Z,-1.10
2019-01-24T22:32:43.265Z,-1.10
2019-01-24T22:35:11.200Z,-1.30
2019-01-24T22:37:38.823Z,-1.30
2019-01-24T22:40:06.541Z,-1.40
2019-01-24T22:42:35.078Z,-1.50
2019-01-24T22:45:03.379Z,-1.50
2019-01-24T22:47:32.776Z,-1.60
2019-01-24T22:50:01.545Z,-1.70
2019-01-24T22:52:30.189Z,-1.80
2019-01-24T22:54:59.657Z,-1.70
2019-01-24T22:57:27.758Z,-1.60
2019-01-24T22:59:55.425Z,-1.70
2019-01-24T23:02:24.903Z,-1.60
2019-01-24T23:04:53.408Z,-1.60
2019-01-24T23:07:21.585Z,-1.60
2019-01-24T23:09:50.254Z,-1.70
2019-01-24T23:12:18.543Z,-1.70
2019-01-24T23:14:47.681Z,-1.60
2019-01-24T23:17:16.162Z,-1.50
2019-01-24T23:19:44.033Z,-1.60
2019-01-24T23:22:12.157Z,-1.80
2019-01-24T23:24:40.526Z,-1.70
2019-01-24T23:27:09.164Z,-1.60
2019-01-24T23:29:37.020Z,-1.60
2019-01-24T23:32:05.500Z,-1.40
2019-01-24T23:34:34.080Z,-1.60
2019-01-24T23:37:02.114Z,-1.60
2019-01-24T23:39:30.662Z,-1.60
2019-01-24T23:41:58.567Z,-1.70
2019-01-24T23:44:27.211Z,-1.50
2019-01-24T23:46:57.109Z,-1.60
2019-01-24T23:49:25.228Z,-1.20
2019-01-24T23:51:53.637Z,-1.20
2019-01-24T23:54:22.935Z,-1.00
2019-01-24T23:56:51.548Z,-0.90
2019-01-24T23:59:19.100Z,-1.00
